Penetanguishene, Canada
Current Conditions -  °F | °C
As of 7:00 AM on Tuesday 27 Jan 2015 (Local Time) from CYQA Reporting Station
Broken Clouds Broken Clouds  
Wind Chill: -16°   Ceiling: 10000
Heat Index: -16°   Visibility: 9mi
Dew Point: -21°   Wind: 2mph
Humidity: 66%   Direction: NA
Pressure: 30.04"   Gusts: NA
Location:  44.77°N, 79.93°W
Report Text: CYQA 271200Z AUTO VRB02KT 9SM BKN100 M16/M21 A3004 RMK SLP198
Loading
Personal Weather Stations






























Interactive Weather Map New forecast layout! Learn more

10-Day Weather Forecast

Advertisements
Track Severe Weather on mobile